Time;durP1;ratioP1;P1;durP2;ratioP2;P2;SDS_P1;SDS_P2;PMS_P1;PMS_P2;Temp;Humidity;BMP_temperature;BMP_pressure;BME280_temperature;BME280_humidity;BME280_pressure;Samples;Min_cycle;Max_cycle;Signal;HPM_P1;HPM_P2
2022/01/19 00:01:20;;;;;;;13.13;7.20;;;0.00;71.20;;;;;;5045611;28;46430;-76
2022/01/19 00:03:46;;;;;;;14.25;6.75;;;0.00;71.40;;;;;;5048891;28;46288;-79
2022/01/19 00:06:15;;;;;;;17.27;7.30;;;0.00;71.40;;;;;;5044992;28;46426;-76
2022/01/19 00:08:40;;;;;;;16.35;7.80;;;0.00;71.50;;;;;;5045322;28;46506;-78
2022/01/19 00:11:08;;;;;;;15.37;5.73;;;0.00;71.60;;;;;;5032501;28;46394;-76
2022/01/19 00:13:37;;;;;;;14.27;6.10;;;-0.10;71.70;;;;;;5037469;28;46483;-78
2022/01/19 00:16:03;;;;;;;14.00;6.32;;;-0.10;71.70;;;;;;5049110;28;46595;-78
2022/01/19 00:18:29;;;;;;;12.33;6.47;;;-0.10;71.70;;;;;;5049483;28;46315;-79
2022/01/19 00:20:56;;;;;;;14.20;6.33;;;-0.10;71.70;;;;;;5048561;28;46508;-79
2022/01/19 00:23:22;;;;;;;17.98;6.78;;;-0.10;71.70;;;;;;5045649;28;46386;-78
2022/01/19 00:25:49;;;;;;;11.18;5.82;;;-0.10;71.80;;;;;;5058558;28;46461;-77
2022/01/19 00:28:15;;;;;;;12.77;6.03;;;0.10;71.90;;;;;;5059989;28;46748;-77
2022/01/19 00:30:41;;;;;;;17.00;6.20;;;-0.10;71.80;;;;;;5046391;28;46502;-76
2022/01/19 00:33:08;;;;;;;15.20;6.68;;;-0.10;72.00;;;;;;5044657;28;46351;-79
2022/01/19 00:35:37;;;;;;;13.77;5.68;;;0.00;72.20;;;;;;5046420;28;46447;-79
2022/01/19 00:38:04;;;;;;;11.63;5.72;;;0.00;72.30;;;;;;5047988;28;47535;-77
2022/01/19 00:40:29;;;;;;;13.82;5.03;;;0.00;72.30;;;;;;5046320;28;46651;-79
2022/01/19 00:42:55;;;;;;;10.30;5.10;;;0.00;72.50;;;;;;5045574;28;45792;-79
2022/01/19 00:45:21;;;;;;;10.53;5.20;;;0.00;72.40;;;;;;5044962;28;46474;-78
2022/01/19 00:47:47;;;;;;;17.77;5.03;;;0.00;72.30;;;;;;5050633;28;46312;-76
2022/01/19 00:50:17;;;;;;;20.23;6.73;;;0.00;72.20;;;;;;5053421;28;46381;-77
2022/01/19 00:52:42;;;;;;;17.98;6.28;;;0.00;72.20;;;;;;5043952;28;46446;-78
2022/01/19 00:55:10;;;;;;;22.33;5.40;;;-0.10;72.00;;;;;;5034488;28;46268;-78
2022/01/19 00:57:36;;;;;;;13.65;5.53;;;0.00;72.20;;;;;;5035468;28;48637;-78
2022/01/19 01:00:12;;;;;;;10.48;5.10;;;-0.10;72.50;;;;;;5043988;28;46602;-78
2022/01/19 01:02:38;;;;;;;19.45;5.43;;;-0.10;72.50;;;;;;5044952;28;46391;-78
2022/01/19 01:05:04;;;;;;;12.27;4.80;;;-0.10;72.50;;;;;;5045736;28;46330;-79
2022/01/19 01:07:33;;;;;;;9.98;5.13;;;-0.10;72.80;;;;;;5035497;28;48101;-79
2022/01/19 01:10:01;;;;;;;16.05;4.88;;;-0.10;72.80;;;;;;5048613;28;45989;-76
2022/01/19 01:12:42;;;;;;;14.13;5.50;;;-0.10;72.80;;;;;;5042942;28;46461;-78
2022/01/19 01:15:28;;;;;;;11.80;5.82;;;-0.10;72.70;;;;;;5051055;28;46610;-79
2022/01/19 01:20:34;;;;;;;13.63;4.63;;;-0.20;72.50;;;;;;5048819;28;46614;-76
2022/01/19 01:23:00;;;;;;;12.73;4.32;;;-0.20;72.60;;;;;;5044880;28;46418;-78
2022/01/19 01:25:26;;;;;;;14.88;5.30;;;-0.20;72.70;;;;;;5047167;28;46454;-78
2022/01/19 01:27:55;;;;;;;12.37;4.53;;;-0.20;72.60;;;;;;5048687;28;46425;-81
2022/01/19 01:30:23;;;;;;;8.75;4.65;;;-0.30;72.50;;;;;;5037491;28;46278;-80
2022/01/19 01:32:48;;;;;;;9.95;4.55;;;-0.30;72.50;;;;;;5048534;28;46379;-79
2022/01/19 01:35:14;;;;;;;19.87;4.60;;;-0.30;72.50;;;;;;5034336;28;46566;-81
2022/01/19 01:37:40;;;;;;;14.90;5.03;;;-0.30;72.50;;;;;;5051324;28;46366;-80
2022/01/19 01:40:08;;;;;;;9.97;4.97;;;-0.30;72.40;;;;;;5046734;28;46437;-80
2022/01/19 01:42:34;;;;;;;11.93;5.40;;;-0.30;72.50;;;;;;5045633;28;46356;-78
2022/01/19 01:45:01;;;;;;;15.57;4.55;;;-0.30;72.40;;;;;;5044452;28;46661;-80
2022/01/19 01:47:31;;;;;;;6.75;3.90;;;-0.30;72.40;;;;;;5046270;28;46430;-78
2022/01/19 01:55:14;;;;;;;12.65;4.35;;;-0.40;72.40;;;;;;5045702;28;46188;-78
2022/01/19 01:57:40;;;;;;;21.33;5.00;;;-0.40;72.40;;;;;;5040358;28;48532;-79
2022/01/19 02:00:10;;;;;;;10.80;4.80;;;-0.40;72.30;;;;;;5049910;28;46450;-77
2022/01/19 02:02:36;;;;;;;14.18;5.07;;;-0.40;72.30;;;;;;5043379;28;46433;-77
2022/01/19 02:05:02;;;;;;;9.95;4.53;;;-0.50;72.30;;;;;;5043247;28;46523;-78
2022/01/19 02:07:43;;;;;;;9.30;4.03;;;-0.50;72.20;;;;;;5044832;28;46457;-79
2022/01/19 02:10:27;;;;;;;13.30;4.68;;;-0.60;72.20;;;;;;5045637;28;46332;-78
2022/01/19 02:23:50;;;;;;;13.15;5.22;;;-0.80;72.20;;;;;;5046379;28;46374;-78
2022/01/19 02:26:24;;;;;;;18.40;4.90;;;-0.80;72.30;;;;;;5042616;28;46410;-78
2022/01/19 02:42:09;;;;;;;13.18;5.35;;;-1.00;72.30;;;;;;5048376;28;46430;-78
2022/01/19 02:49:55;;;;;;;12.23;4.50;;;-1.10;72.40;;;;;;5051943;28;46278;-79
2022/01/19 02:52:22;;;;;;;11.95;4.90;;;-1.10;72.50;;;;;;5045061;28;46412;-77
2022/01/19 02:54:49;;;;;;;9.93;5.13;;;-1.20;72.40;;;;;;5053367;28;46360;-78
2022/01/19 02:57:15;;;;;;;9.60;5.18;;;-1.30;72.40;;;;;;5042572;28;46395;-81
2022/01/19 03:10:21;;;;;;;10.88;4.72;;;-1.30;72.50;;;;;;5044742;28;46395;-80
2022/01/19 03:12:47;;;;;;;11.73;5.20;;;-1.30;72.40;;;;;;5030155;28;46374;-80
2022/01/19 03:15:14;;;;;;;16.63;4.90;;;-1.10;72.10;;;;;;5043980;28;46455;-80
2022/01/19 03:17:40;;;;;;;9.43;5.45;;;-0.90;71.70;;;;;;5047375;28;46922;-80
2022/01/19 03:20:08;;;;;;;19.30;5.60;;;-0.60;71.00;;;;;;5039444;28;46373;-77
2022/01/19 03:22:40;;;;;;;9.65;5.25;;;-0.30;70.30;;;;;;5039524;28;46506;-77
2022/01/19 03:25:12;;;;;;;16.83;6.70;;;-0.10;69.40;;;;;;5044740;28;46275;-78
2022/01/19 03:27:39;;;;;;;20.65;6.85;;;0.00;69.40;;;;;;5031208;28;46434;-78
2022/01/19 03:30:09;;;;;;;12.55;5.90;;;0.10;69.40;;;;;;5043062;28;46257;-79
2022/01/19 03:32:34;;;;;;;12.57;5.85;;;0.30;69.60;;;;;;5038882;28;46566;-77
2022/01/19 03:35:00;;;;;;;18.00;5.40;;;0.40;69.70;;;;;;5040966;28;46491;-78
2022/01/19 03:37:26;;;;;;;13.03;5.30;;;0.50;69.80;;;;;;5043381;28;46435;-78
2022/01/19 03:39:51;;;;;;;16.77;7.80;;;0.60;69.50;;;;;;5042023;28;46492;-79
2022/01/19 03:42:17;;;;;;;17.33;8.63;;;0.70;69.30;;;;;;5043734;28;46306;-78
2022/01/19 03:44:43;;;;;;;26.20;11.60;;;0.70;69.30;;;;;;5043335;28;46466;-79
2022/01/19 03:47:09;;;;;;;16.27;7.80;;;0.80;69.30;;;;;;5046433;28;46453;-81
2022/01/19 03:49:35;;;;;;;13.43;6.00;;;0.90;69.40;;;;;;5042648;28;46418;-78
2022/01/19 03:52:03;;;;;;;14.93;5.97;;;0.90;69.40;;;;;;5039136;28;46326;-79
2022/01/19 03:54:34;;;;;;;14.25;5.20;;;0.80;70.00;;;;;;5018125;28;46990;-78
2022/01/19 03:57:00;;;;;;;17.30;5.40;;;0.70;70.00;;;;;;5029579;28;46295;-79
2022/01/19 03:59:26;;;;;;;21.53;5.80;;;0.60;69.90;;;;;;5041156;28;46381;-78
2022/01/19 04:01:52;;;;;;;12.50;5.50;;;0.70;69.90;;;;;;5041792;28;46356;-78
2022/01/19 04:09:44;;;;;;;11.02;5.10;;;0.60;69.90;;;;;;5039772;28;47432;-79
2022/01/19 04:12:15;;;;;;;13.57;5.68;;;0.60;69.90;;;;;;5044808;28;46378;-78
2022/01/19 04:14:41;;;;;;;9.98;5.50;;;0.70;70.00;;;;;;5041780;28;46330;-78
2022/01/19 04:17:10;;;;;;;15.57;5.23;;;0.80;70.00;;;;;;5028060;28;46425;-77
2022/01/19 04:19:47;;;;;;;11.05;5.82;;;0.90;70.10;;;;;;5044412;28;46633;-80
2022/01/19 04:22:14;;;;;;;8.48;5.70;;;1.00;69.70;;;;;;5040588;28;46625;-78
2022/01/19 04:24:41;;;;;;;15.25;6.28;;;1.20;69.70;;;;;;5027376;28;45987;-79
2022/01/19 04:30:27;;;;;;;14.82;5.90;;;1.10;69.60;;;;;;5037536;28;47067;-79
2022/01/19 04:35:25;;;;;;;20.88;7.13;;;1.20;69.20;;;;;;5041769;28;46414;-81
2022/01/19 04:38:08;;;;;;;13.93;6.85;;;1.30;69.20;;;;;;5048023;28;46229;-81
2022/01/19 04:46:24;;;;;;;21.90;7.05;;;1.20;69.70;;;;;;5050208;28;46477;-80
2022/01/19 04:49:14;;;;;;;15.77;7.30;;;1.30;69.50;;;;;;5053643;28;46404;-80
2022/01/19 05:15:32;;;;;;;12.52;6.38;;;1.70;69.20;;;;;;5053606;28;46431;-79
2022/01/19 05:17:58;;;;;;;13.52;7.50;;;1.70;69.10;;;;;;5033489;28;46659;-78
2022/01/19 05:20:23;;;;;;;22.77;8.80;;;1.70;68.90;;;;;;5049749;28;46410;-80
2022/01/19 05:22:49;;;;;;;17.27;9.33;;;1.80;69.00;;;;;;5036110;28;48154;-79
2022/01/19 05:25:14;;;;;;;16.40;8.27;;;1.80;69.10;;;;;;5052486;28;46468;-80
2022/01/19 05:27:40;;;;;;;14.53;8.50;;;1.80;69.20;;;;;;5050217;28;46449;-79
2022/01/19 05:30:06;;;;;;;16.10;8.53;;;1.80;69.20;;;;;;5036989;28;46387;-80
2022/01/19 05:32:32;;;;;;;20.00;8.70;;;1.80;69.10;;;;;;5046045;28;48287;-78
2022/01/19 05:34:57;;;;;;;17.67;8.50;;;2.00;69.20;;;;;;5045282;28;46414;-78
2022/01/19 05:37:23;;;;;;;15.23;8.20;;;1.90;69.10;;;;;;5047076;28;46456;-79
2022/01/19 05:39:48;;;;;;;14.87;7.70;;;1.90;69.10;;;;;;5049391;28;46431;-78
2022/01/19 05:42:15;;;;;;;25.57;9.90;;;2.00;69.30;;;;;;5059165;28;46368;-81
2022/01/19 05:44:45;;;;;;;17.23;8.52;;;2.00;69.20;;;;;;5064350;28;46462;-79
2022/01/19 05:47:12;;;;;;;16.42;8.02;;;2.00;69.10;;;;;;5050546;28;46386;-80
2022/01/19 05:49:39;;;;;;;19.10;8.77;;;2.10;69.10;;;;;;5033033;28;46656;-80
2022/01/19 05:52:06;;;;;;;17.70;10.02;;;2.10;69.00;;;;;;5044298;28;46430;-78
2022/01/19 05:54:32;;;;;;;19.67;10.20;;;2.10;68.80;;;;;;5043242;28;46545;-80
2022/01/19 05:56:58;;;;;;;14.60;9.70;;;2.20;68.90;;;;;;5043255;28;46537;-79
2022/01/19 05:59:24;;;;;;;19.90;11.20;;;2.20;68.80;;;;;;5044760;28;46477;-77
2022/01/19 06:01:49;;;;;;;16.87;11.00;;;2.20;68.80;;;;;;5031297;28;48626;-79
2022/01/19 06:04:15;;;;;;;19.10;11.03;;;2.30;69.00;;;;;;5031113;28;46350;-80
2022/01/19 06:06:41;;;;;;;20.87;10.50;;;2.30;69.10;;;;;;5043590;28;46433;-79
2022/01/19 06:09:21;;;;;;;20.30;10.60;;;2.30;69.00;;;;;;5043756;28;46424;-78
2022/01/19 06:11:46;;;;;;;18.42;10.98;;;2.30;68.90;;;;;;5042452;28;48302;-78
2022/01/19 06:14:12;;;;;;;20.93;11.10;;;2.40;69.00;;;;;;5043704;28;46350;-80
2022/01/19 06:16:39;;;;;;;20.20;11.53;;;2.30;69.10;;;;;;5033241;28;46551;-81
2022/01/19 06:19:05;;;;;;;16.55;10.10;;;2.30;69.20;;;;;;5032765;28;46434;-81
2022/01/19 06:21:31;;;;;;;17.57;10.70;;;2.40;69.20;;;;;;5048836;28;46292;-81
2022/01/19 06:23:56;;;;;;;22.17;14.33;;;2.40;69.20;;;;;;5052116;28;46436;-79
2022/01/19 06:26:22;;;;;;;27.07;16.13;;;2.40;69.10;;;;;;5052495;28;46483;-79
2022/01/19 06:28:47;;;;;;;22.97;13.40;;;2.50;69.10;;;;;;5054041;28;50906;-80
2022/01/19 06:31:13;;;;;;;22.53;13.57;;;2.40;69.10;;;;;;5052121;28;46728;-81
2022/01/19 06:33:38;;;;;;;23.13;13.50;;;2.40;69.20;;;;;;5039564;28;46689;-83
2022/01/19 06:36:04;;;;;;;27.47;14.50;;;2.40;69.40;;;;;;5048812;28;46478;-82
2022/01/19 06:38:30;;;;;;;30.30;16.63;;;2.40;69.50;;;;;;5040619;28;46215;-79
2022/01/19 06:40:56;;;;;;;24.33;15.00;;;2.40;69.30;;;;;;5035232;28;49088;-81
2022/01/19 06:43:21;;;;;;;29.73;15.03;;;2.50;69.30;;;;;;5042437;28;46273;-79
2022/01/19 06:45:47;;;;;;;25.80;15.53;;;2.50;69.20;;;;;;5028967;28;46382;-78
2022/01/19 06:48:12;;;;;;;24.27;13.90;;;2.50;69.00;;;;;;5029775;28;46633;-78
2022/01/19 06:50:38;;;;;;;27.30;15.20;;;2.60;69.10;;;;;;5047502;28;46430;-80
2022/01/19 06:53:03;;;;;;;22.33;13.17;;;2.60;69.00;;;;;;5046580;28;46325;-79
2022/01/19 06:55:29;;;;;;;22.07;13.37;;;2.60;69.20;;;;;;5043965;28;46415;-79
2022/01/19 06:57:55;;;;;;;24.50;14.30;;;2.50;69.40;;;;;;5042409;28;46382;-77
2022/01/19 07:00:21;;;;;;;26.10;15.93;;;2.50;69.70;;;;;;5034425;28;54381;-78
2022/01/19 07:02:46;;;;;;;25.60;15.27;;;2.50;69.70;;;;;;5052196;28;46551;-78
2022/01/19 07:05:12;;;;;;;24.65;13.60;;;2.40;69.80;;;;;;5042590;28;45875;-78
2022/01/19 07:07:38;;;;;;;23.40;14.17;;;2.40;69.90;;;;;;5042504;28;46228;-79
2022/01/19 07:10:05;;;;;;;22.53;13.50;;;2.50;69.90;;;;;;5028597;28;48222;-78
2022/01/19 07:12:31;;;;;;;23.50;13.60;;;2.50;69.70;;;;;;5029957;28;46135;-78
2022/01/19 07:14:57;;;;;;;24.77;15.43;;;2.60;69.60;;;;;;5043998;28;46418;-78
2022/01/19 07:17:23;;;;;;;25.77;15.10;;;2.70;69.50;;;;;;5046681;28;46466;-79
2022/01/19 07:19:48;;;;;;;21.90;14.60;;;2.70;69.40;;;;;;5050172;28;46304;-80
2022/01/19 07:22:15;;;;;;;27.47;15.97;;;2.70;69.40;;;;;;5053204;28;50261;-78
2022/01/19 07:24:41;;;;;;;27.00;16.52;;;2.70;69.40;;;;;;5039334;28;46367;-80
2022/01/19 07:27:07;;;;;;;27.08;15.30;;;2.80;69.30;;;;;;5043976;28;46778;-80
2022/01/19 07:29:32;;;;;;;27.27;18.03;;;2.80;69.20;;;;;;5046600;28;47494;-78
2022/01/19 07:31:58;;;;;;;25.93;16.40;;;2.80;68.90;;;;;;5047486;28;46145;-79
2022/01/19 07:34:25;;;;;;;26.90;16.00;;;2.90;69.20;;;;;;5044938;28;46329;-78
2022/01/19 07:36:55;;;;;;;26.80;16.75;;;2.90;69.00;;;;;;5047189;28;46701;-78
2022/01/19 07:39:22;;;;;;;24.63;15.90;;;3.00;68.80;;;;;;5049582;28;46868;-78
2022/01/19 07:41:48;;;;;;;27.15;16.10;;;3.00;68.80;;;;;;5034369;28;46360;-80
2022/01/19 07:44:14;;;;;;;25.63;15.20;;;3.00;68.70;;;;;;5032312;28;46781;-79
2022/01/19 07:46:40;;;;;;;27.95;16.92;;;3.00;69.80;;;;;;5044526;28;46284;-78
2022/01/19 07:49:06;;;;;;;24.40;13.80;;;3.00;68.50;;;;;;5045400;28;47246;-79
2022/01/19 07:51:32;;;;;;;23.70;14.10;;;3.10;68.60;;;;;;5047870;28;46411;-78
2022/01/19 07:53:57;;;;;;;23.17;14.85;;;3.10;68.60;;;;;;5046583;28;46693;-80
2022/01/19 07:56:23;;;;;;;25.80;14.97;;;3.00;68.70;;;;;;5044216;28;46340;-78
2022/01/19 07:58:48;;;;;;;25.47;17.00;;;3.10;68.70;;;;;;5033684;28;48394;-78
2022/01/19 08:01:14;;;;;;;25.37;16.47;;;3.10;68.60;;;;;;5044762;28;46292;-77
2022/01/19 08:03:40;;;;;;;24.33;16.00;;;3.20;68.40;;;;;;5046423;28;46514;-79
2022/01/19 08:06:06;;;;;;;23.60;15.73;;;3.20;68.60;;;;;;5044806;28;46323;-81
2022/01/19 08:08:32;;;;;;;27.92;16.40;;;3.10;68.80;;;;;;5054333;28;49654;-78
2022/01/19 08:10:57;;;;;;;23.30;14.47;;;3.10;68.80;;;;;;5049199;28;46526;-80
2022/01/19 08:13:23;;;;;;;22.20;13.80;;;3.40;69.00;;;;;;5049629;28;46490;-82
2022/01/19 08:15:49;;;;;;;28.85;19.20;;;3.20;68.70;;;;;;5051078;28;46406;-79
2022/01/19 08:18:15;;;;;;;22.70;14.87;;;3.20;68.50;;;;;;5049734;28;46365;-80
2022/01/19 08:20:43;;;;;;;28.83;14.97;;;3.30;68.90;;;;;;5057049;28;45849;-78
2022/01/19 08:23:09;;;;;;;25.45;15.80;;;3.30;68.80;;;;;;5043642;28;46596;-77
2022/01/19 08:25:35;;;;;;;25.70;17.05;;;3.20;68.70;;;;;;5031115;28;46482;-77
2022/01/19 08:28:00;;;;;;;23.17;15.00;;;3.10;68.80;;;;;;5045982;28;46440;-80
2022/01/19 08:30:26;;;;;;;26.90;15.50;;;3.00;69.60;;;;;;5051949;28;46459;-78
2022/01/19 08:32:51;;;;;;;24.20;14.03;;;2.90;69.90;;;;;;5046103;28;46488;-78
2022/01/19 08:35:17;;;;;;;22.90;14.67;;;2.80;70.00;;;;;;5045319;28;46572;-77
2022/01/19 08:37:43;;;;;;;23.20;13.30;;;2.80;70.00;;;;;;5043300;28;46422;-77
2022/01/19 08:40:09;;;;;;;24.03;14.17;;;2.80;70.00;;;;;;5046354;28;46402;-77
2022/01/19 08:42:36;;;;;;;26.85;15.10;;;2.90;69.90;;;;;;5050533;28;46620;-76
2022/01/19 08:45:07;;;;;;;22.50;14.50;;;2.80;69.80;;;;;;5032834;28;46390;-79
2022/01/19 08:47:34;;;;;;;29.55;17.83;;;2.70;69.90;;;;;;5038111;28;48045;-78
2022/01/19 08:50:00;;;;;;;27.33;15.55;;;2.70;70.10;;;;;;5043555;28;46461;-80
2022/01/19 08:52:25;;;;;;;25.37;14.73;;;2.70;70.20;;;;;;5046483;28;46375;-78
2022/01/19 08:54:51;;;;;;;26.47;15.83;;;2.70;70.20;;;;;;5049071;28;46336;-77
2022/01/19 08:57:18;;;;;;;23.37;14.33;;;2.70;70.00;;;;;;5034469;28;48465;-81
2022/01/19 08:59:44;;;;;;;24.95;14.32;;;2.70;70.00;;;;;;5044151;28;46574;-79
2022/01/19 09:02:10;;;;;;;25.20;15.57;;;2.70;70.00;;;;;;5043421;28;46522;-77
2022/01/19 09:04:36;;;;;;;28.05;17.55;;;2.80;70.00;;;;;;5049010;28;46442;-78
2022/01/19 09:07:02;;;;;;;30.30;17.23;;;2.80;70.00;;;;;;5035819;28;49596;-80
2022/01/19 09:09:28;;;;;;;28.40;16.27;;;2.80;69.80;;;;;;5049161;28;46344;-77
2022/01/19 09:11:53;;;;;;;27.27;14.87;;;2.90;69.90;;;;;;5044671;28;46379;-80
2022/01/19 09:14:19;;;;;;;29.40;15.53;;;2.90;69.80;;;;;;5037372;28;46679;-80
2022/01/19 09:16:49;;;;;;;25.40;14.80;;;2.90;69.80;;;;;;5043982;28;46340;-80
2022/01/19 09:19:15;;;;;;;26.65;14.55;;;2.90;69.90;;;;;;5044554;28;46492;-80
2022/01/19 09:21:41;;;;;;;23.40;14.45;;;2.90;69.90;;;;;;5044702;28;46511;-77
2022/01/19 09:24:06;;;;;;;27.43;15.70;;;3.00;69.70;;;;;;5048030;28;46450;-79
2022/01/19 09:26:32;;;;;;;26.73;15.83;;;3.00;69.70;;;;;;5048790;28;46485;-80
2022/01/19 09:28:57;;;;;;;20.90;13.50;;;3.10;69.70;;;;;;5047170;28;46368;-80
2022/01/19 09:31:24;;;;;;;29.97;15.90;;;3.10;69.60;;;;;;5054223;28;46430;-78
2022/01/19 09:34:07;;;;;;;25.25;15.23;;;3.20;69.50;;;;;;5051296;28;46570;-80
2022/01/19 09:36:35;;;;;;;23.77;14.00;;;3.30;69.40;;;;;;5046913;28;46459;-80
2022/01/19 09:39:05;;;;;;;26.13;14.55;;;3.30;69.40;;;;;;5046392;28;46556;-78
2022/01/19 09:41:32;;;;;;;24.98;13.43;;;3.30;69.40;;;;;;5043393;28;46411;-78
2022/01/19 09:43:57;;;;;;;24.42;14.27;;;3.30;69.40;;;;;;5026380;28;46300;-77
2022/01/19 09:46:23;;;;;;;21.10;13.60;;;3.40;69.30;;;;;;5042822;28;46672;-77
2022/01/19 09:48:49;;;;;;;22.27;13.17;;;3.40;69.30;;;;;;5035789;28;46333;-77
2022/01/19 09:51:15;;;;;;;27.60;14.70;;;3.50;69.40;;;;;;5038941;28;46293;-79
2022/01/19 09:53:42;;;;;;;26.67;14.50;;;3.50;69.20;;;;;;5054400;28;45998;-81
2022/01/19 09:56:08;;;;;;;26.75;13.07;;;3.60;69.10;;;;;;5046353;28;47619;-82
2022/01/19 09:58:33;;;;;;;23.23;13.50;;;3.70;69.00;;;;;;5050556;28;46344;-81
2022/01/19 10:00:59;;;;;;;20.20;12.70;;;3.80;69.00;;;;;;5048050;28;46299;-78
2022/01/19 10:03:30;;;;;;;22.77;13.70;;;3.80;69.00;;;;;;5040006;28;46371;-79
2022/01/19 10:06:02;;;;;;;18.55;12.52;;;3.90;68.80;;;;;;5045627;28;46418;-78
2022/01/19 10:08:33;;;;;;;22.45;13.25;;;3.90;68.60;;;;;;5033127;28;46481;-77
2022/01/19 10:11:17;;;;;;;27.35;13.93;;;4.00;68.70;;;;;;5046588;28;46406;-80
2022/01/19 10:16:59;;;;;;;31.95;17.80;;;4.10;68.70;;;;;;5041800;28;46872;-80
2022/01/19 10:19:25;;;;;;;29.30;16.38;;;4.20;68.30;;;;;;5044601;28;46649;-78
2022/01/19 10:22:06;;;;;;;19.38;12.45;;;4.20;68.30;;;;;;5043522;28;46302;-79
2022/01/19 10:24:36;;;;;;;27.30;15.57;;;4.30;68.20;;;;;;5031858;28;46339;-78
2022/01/19 10:27:33;;;;;;;22.02;13.35;;;4.30;68.10;;;;;;5039829;28;47459;-78
2022/01/19 10:30:02;;;;;;;24.73;13.93;;;4.30;68.10;;;;;;5042685;28;46860;-78
2022/01/19 10:32:28;;;;;;;25.48;16.27;;;4.30;68.20;;;;;;5046582;28;46401;-79
2022/01/19 10:34:54;;;;;;;30.23;16.63;;;4.40;68.20;;;;;;5046038;28;46325;-80
2022/01/19 10:37:25;;;;;;;30.63;15.77;;;4.40;68.10;;;;;;5041295;28;46529;-78
2022/01/19 10:39:54;;;;;;;27.55;15.65;;;4.50;67.90;;;;;;5040950;28;46333;-79
2022/01/19 10:42:22;;;;;;;28.73;16.88;;;4.50;67.80;;;;;;5039955;28;46372;-76
2022/01/19 10:45:00;;;;;;;22.47;13.70;;;4.50;67.70;;;;;;5041725;28;46352;-78
2022/01/19 10:47:47;;;;;;;19.57;12.10;;;4.60;67.70;;;;;;5048096;28;46353;-79
2022/01/19 10:50:14;;;;;;;21.23;12.68;;;4.70;67.60;;;;;;5035264;28;46425;-78
2022/01/19 10:52:43;;;;;;;21.85;12.30;;;4.60;67.60;;;;;;5042609;28;46459;-79
2022/01/19 10:55:30;;;;;;;21.73;12.60;;;4.60;67.60;;;;;;5045808;28;46444;-79
2022/01/19 10:57:58;;;;;;;16.90;12.00;;;4.60;67.60;;;;;;5039503;28;49241;-78
2022/01/19 11:00:25;;;;;;;18.50;11.48;;;4.60;67.70;;;;;;5040769;28;46430;-78
2022/01/19 11:02:53;;;;;;;17.93;11.00;;;4.60;67.50;;;;;;5031075;28;46434;-78
2022/01/19 11:06:00;;;;;;;20.70;11.57;;;4.60;67.30;;;;;;5036793;28;46465;-79
2022/01/19 11:08:28;;;;;;;17.45;11.52;;;4.50;67.10;;;;;;5026583;28;48218;-79
2022/01/19 11:10:56;;;;;;;19.23;12.10;;;4.50;67.10;;;;;;5043587;28;46467;-79
2022/01/19 11:13:34;;;;;;;20.23;12.23;;;4.50;67.20;;;;;;5031915;28;46385;-78
2022/01/19 11:16:03;;;;;;;17.47;10.63;;;4.60;67.10;;;;;;5041854;28;46618;-79
2022/01/19 11:18:30;;;;;;;19.90;11.00;;;4.60;66.60;;;;;;5041761;28;47384;-80
2022/01/19 11:21:01;;;;;;;20.13;11.82;;;4.60;66.40;;;;;;5045441;28;46627;-81
2022/01/19 11:23:48;;;;;;;18.70;11.90;;;4.50;66.00;;;;;;5041488;28;46314;-78
2022/01/19 11:26:16;;;;;;;19.70;11.60;;;4.50;66.30;;;;;;5042420;28;46740;-80
2022/01/19 11:28:46;;;;;;;21.00;12.60;;;4.50;66.20;;;;;;5049092;28;46894;-79
2022/01/19 11:31:36;;;;;;;23.27;11.80;;;4.60;66.30;;;;;;5042357;28;46407;-81
2022/01/19 11:34:02;;;;;;;18.75;11.35;;;4.70;66.10;;;;;;5039532;28;46404;-79
2022/01/19 11:36:34;;;;;;;19.83;12.40;;;4.80;65.80;;;;;;5039596;28;46383;-81
2022/01/19 11:39:20;;;;;;;16.60;11.07;;;4.90;65.80;;;;;;5034581;28;49326;-81
2022/01/19 11:41:51;;;;;;;17.45;10.95;;;5.00;65.70;;;;;;5042839;28;46343;-79
2022/01/19 11:44:29;;;;;;;21.58;11.75;;;5.10;65.50;;;;;;5040342;28;46346;-79
2022/01/19 11:46:58;;;;;;;23.67;10.50;;;5.30;65.10;;;;;;5048362;28;46430;-78
2022/01/19 11:49:51;;;;;;;18.83;11.53;;;5.40;64.90;;;;;;5035165;28;48617;-81
2022/01/19 11:52:20;;;;;;;20.80;13.10;;;5.50;64.70;;;;;;5042650;28;46510;-78
2022/01/19 11:54:46;;;;;;;18.83;11.43;;;5.60;64.80;;;;;;5046049;28;46401;-80
2022/01/19 11:57:22;;;;;;;20.27;11.87;;;5.50;64.70;;;;;;5045624;28;46392;-79
2022/01/19 11:59:47;;;;;;;18.30;10.90;;;5.50;64.30;;;;;;5048944;28;46254;-79
2022/01/19 12:02:23;;;;;;;20.87;11.37;;;5.50;64.20;;;;;;5043754;28;46433;-81
2022/01/19 12:04:52;;;;;;;20.37;11.20;;;5.50;63.70;;;;;;5045777;28;46534;-80
2022/01/19 12:07:37;;;;;;;19.10;11.57;;;5.50;63.50;;;;;;5045041;28;46671;-80
2022/01/19 12:10:11;;;;;;;18.47;11.00;;;5.60;63.90;;;;;;5035020;28;49644;-82
2022/01/19 12:12:57;;;;;;;15.93;9.50;;;5.70;63.60;;;;;;5047985;28;46375;-79
2022/01/19 12:16:01;;;;;;;18.83;11.07;;;5.70;63.40;;;;;;5030331;28;46490;-82
2022/01/19 12:18:51;;;;;;;14.00;8.70;;;5.70;63.10;;;;;;5041574;28;46351;-82
2022/01/19 12:21:31;;;;;;;18.07;10.53;;;5.80;63.30;;;;;;5048998;28;46436;-79
2022/01/19 12:24:30;;;;;;;16.30;10.63;;;5.80;62.90;;;;;;5048161;28;46363;-81
2022/01/19 12:27:13;;;;;;;25.20;10.83;;;5.80;62.90;;;;;;5029869;28;46459;-80
2022/01/19 12:29:46;;;;;;;13.93;9.30;;;5.80;62.80;;;;;;5043031;28;46429;-80
2022/01/19 12:32:18;;;;;;;17.63;10.53;;;5.90;63.10;;;;;;5043279;28;47289;-80
2022/01/19 12:34:49;;;;;;;17.10;10.73;;;6.00;62.90;;;;;;5045365;28;46637;-79
2022/01/19 12:37:26;;;;;;;13.53;9.07;;;6.10;62.80;;;;;;5031951;28;46370;-82
2022/01/19 12:39:53;;;;;;;15.60;9.40;;;6.20;62.70;;;;;;5045576;28;46635;-79
2022/01/19 12:42:25;;;;;;;21.13;10.57;;;6.20;62.20;;;;;;5033909;28;48525;-80
2022/01/19 12:44:55;;;;;;;17.30;9.67;;;6.30;62.20;;;;;;5042555;28;46409;-79
2022/01/19 12:47:27;;;;;;;17.60;9.53;;;6.40;62.30;;;;;;5043752;28;46427;-79
2022/01/19 12:50:03;;;;;;;16.90;9.80;;;6.40;62.30;;;;;;5043549;28;46293;-79
2022/01/19 12:52:32;;;;;;;15.00;9.53;;;6.50;62.40;;;;;;5045694;28;47631;-78
2022/01/19 12:55:13;;;;;;;14.80;9.37;;;6.50;62.40;;;;;;5044658;28;46344;-79
2022/01/19 12:57:39;;;;;;;14.93;9.07;;;6.60;62.40;;;;;;5047906;28;45814;-78
2022/01/19 13:00:08;;;;;;;14.00;8.37;;;6.70;62.50;;;;;;5049359;28;46325;-81
2022/01/19 13:02:34;;;;;;;16.27;9.00;;;6.70;62.30;;;;;;5038547;28;48514;-81
2022/01/19 13:05:09;;;;;;;14.73;9.50;;;6.70;62.20;;;;;;5050284;28;46420;-80
2022/01/19 13:07:55;;;;;;;12.30;8.70;;;6.80;62.00;;;;;;5034065;28;46419;-80
2022/01/19 13:10:39;;;;;;;14.97;9.80;;;6.80;61.80;;;;;;5018875;28;46488;-81
2022/01/19 13:16:06;;;;;;;13.67;8.40;;;6.80;61.70;;;;;;5014606;28;46807;-82
2022/01/19 13:18:37;;;;;;;16.97;9.20;;;6.90;61.40;;;;;;5043528;28;46556;-80
2022/01/19 13:21:08;;;;;;;12.03;8.07;;;6.90;61.40;;;;;;5048434;28;46331;-82
2022/01/19 13:23:53;;;;;;;14.43;8.53;;;6.80;60.00;;;;;;5034346;28;48668;-80
2022/01/19 13:26:19;;;;;;;14.60;8.67;;;6.70;59.90;;;;;;5049881;28;46497;-81
2022/01/19 13:28:44;;;;;;;18.70;8.50;;;6.70;59.90;;;;;;5045353;28;46484;-79
2022/01/19 13:31:18;;;;;;;13.77;8.97;;;6.70;60.20;;;;;;5042971;28;46402;-79
2022/01/19 13:33:53;;;;;;;14.63;7.87;;;6.70;59.90;;;;;;5040704;28;47067;-78
2022/01/19 13:36:31;;;;;;;18.83;9.17;;;6.70;59.80;;;;;;5045955;28;46502;-79
2022/01/19 13:38:57;;;;;;;14.50;8.53;;;6.80;60.00;;;;;;5033928;28;46130;-80
2022/01/19 13:41:24;;;;;;;14.27;8.27;;;6.80;59.80;;;;;;5044634;28;46284;-80
2022/01/19 13:43:50;;;;;;;13.73;7.73;;;6.80;60.00;;;;;;5041566;28;46377;-77
2022/01/19 13:46:28;;;;;;;15.13;8.53;;;6.90;59.50;;;;;;5026738;28;46460;-80
2022/01/19 13:48:59;;;;;;;13.10;8.00;;;6.90;59.60;;;;;;5043137;28;46414;-80
2022/01/19 13:51:26;;;;;;;16.10;8.70;;;7.00;59.50;;;;;;5041482;28;46605;-79
2022/01/19 13:53:53;;;;;;;14.77;8.67;;;7.00;59.60;;;;;;5044019;28;46330;-80
2022/01/19 13:56:26;;;;;;;13.40;8.20;;;7.10;59.70;;;;;;5051187;28;45866;-79
2022/01/19 13:59:04;;;;;;;14.37;8.53;;;7.20;59.60;;;;;;5034568;28;46392;-80
2022/01/19 14:01:35;;;;;;;14.30;8.53;;;7.30;59.50;;;;;;5032287;28;46512;-81
2022/01/19 14:04:06;;;;;;;12.10;7.93;;;7.30;59.50;;;;;;5045785;28;46939;-78
2022/01/19 14:06:37;;;;;;;14.93;7.53;;;7.30;59.50;;;;;;5044463;28;46316;-80
2022/01/19 14:09:12;;;;;;;15.63;8.83;;;7.30;59.40;;;;;;5040601;28;46426;-80
2022/01/19 14:11:39;;;;;;;12.53;7.30;;;7.30;59.50;;;;;;5031841;28;46411;-79
2022/01/19 14:14:08;;;;;;;17.50;8.80;;;7.30;59.50;;;;;;5047248;28;46475;-80
2022/01/19 14:16:38;;;;;;;18.43;8.90;;;7.30;59.10;;;;;;5035759;28;47153;-80
2022/01/19 14:19:25;;;;;;;17.03;7.50;;;7.20;59.30;;;;;;5050985;28;46469;-79
2022/01/19 14:21:54;;;;;;;15.53;8.83;;;7.20;59.30;;;;;;5011264;28;46690;-81
2022/01/19 14:24:20;;;;;;;12.17;7.27;;;7.20;59.40;;;;;;5050289;28;46488;-78
2022/01/19 14:26:58;;;;;;;15.07;7.60;;;7.10;59.40;;;;;;5045304;28;46475;-82